sensor_id;sensor_type;location;lat;lon;timestamp;temperature;humidity
2723;DHT22;1369;53.216;10.396;2023-03-01T00:01:17;-1.70;99.90
2723;DHT22;1369;53.216;10.396;2023-03-01T00:03:43;-1.70;99.90
2723;DHT22;1369;53.216;10.396;2023-03-01T00:06:09;-1.60;99.90
2723;DHT22;1369;53.216;10.396;2023-03-01T00:08:35;-1.60;99.90
2723;DHT22;1369;53.216;10.396;2023-03-01T00:11:12;-1.70;99.90
2723;DHT22;1369;53.216;10.396;2023-03-01T00:13:38;-1.80;99.90
2723;DHT22;1369;53.216;10.396;2023-03-01T00:16:05;-2.00;99.90
2723;DHT22;1369;53.216;10.396;2023-03-01T00:18:31;-2.10;99.90
2723;DHT22;1369;53.216;10.396;2023-03-01T00:20:57;-2.10;99.90
2723;DHT22;1369;53.216;10.396;2023-03-01T00:23:24;-2.10;99.90
2723;DHT22;1369;53.216;10.396;2023-03-01T00:25:50;-2.10;99.90
2723;DHT22;1369;53.216;10.396;2023-03-01T00:28:16;-2.20;99.90
2723;DHT22;1369;53.216;10.396;2023-03-01T00:30:41;-2.20;99.90
2723;DHT22;1369;53.216;10.396;2023-03-01T00:33:07;-2.20;99.90
2723;DHT22;1369;53.216;10.396;2023-03-01T00:35:33;-2.20;99.90
2723;DHT22;1369;53.216;10.396;2023-03-01T00:37:58;-2.10;99.90
2723;DHT22;1369;53.216;10.396;2023-03-01T00:40:25;-2.20;99.90
2723;DHT22;1369;53.216;10.396;2023-03-01T00:42:50;-2.10;99.90
2723;DHT22;1369;53.216;10.396;2023-03-01T00:45:16;-2.10;99.90
2723;DHT22;1369;53.216;10.396;2023-03-01T00:47:42;-2.20;99.90
2723;DHT22;1369;53.216;10.396;2023-03-01T00:50:08;-2.20;99.90
2723;DHT22;1369;53.216;10.396;2023-03-01T00:52:34;-2.00;99.90
2723;DHT22;1369;53.216;10.396;2023-03-01T00:54:59;-1.90;99.90
2723;DHT22;1369;53.216;10.396;2023-03-01T00:57:25;-2.10;99.90
2723;DHT22;1369;53.216;10.396;2023-03-01T00:59:50;-2.00;99.90
2723;DHT22;1369;53.216;10.396;2023-03-01T01:02:18;-2.10;99.90
2723;DHT22;1369;53.216;10.396;2023-03-01T01:04:44;-2.10;99.90
2723;DHT22;1369;53.216;10.396;2023-03-01T01:07:09;-2.00;99.90
2723;DHT22;1369;53.216;10.396;2023-03-01T01:09:35;-2.10;99.90
2723;DHT22;1369;53.216;10.396;2023-03-01T01:12:01;-2.30;99.90
2723;DHT22;1369;53.216;10.396;2023-03-01T01:14:27;-2.40;99.90
2723;DHT22;1369;53.216;10.396;2023-03-01T01:16:52;-2.40;99.90
2723;DHT22;1369;53.216;10.396;2023-03-01T01:19:18;-2.40;99.90
2723;DHT22;1369;53.216;10.396;2023-03-01T01:21:44;-2.20;99.90
2723;DHT22;1369;53.216;10.396;2023-03-01T01:24:10;-2.20;99.90
2723;DHT22;1369;53.216;10.396;2023-03-01T01:26:36;-2.20;99.90
2723;DHT22;1369;53.216;10.396;2023-03-01T01:29:04;-2.30;99.90
2723;DHT22;1369;53.216;10.396;2023-03-01T01:31:30;-2.50;99.90
2723;DHT22;1369;53.216;10.396;2023-03-01T01:33:56;-2.50;99.90
2723;DHT22;1369;53.216;10.396;2023-03-01T01:36:22;-2.40;99.90
2723;DHT22;1369;53.216;10.396;2023-03-01T01:38:48;-2.30;99.90
2723;DHT22;1369;53.216;10.396;2023-03-01T01:41:14;-2.30;99.90
2723;DHT22;1369;53.216;10.396;2023-03-01T01:43:46;-2.30;99.90
2723;DHT22;1369;53.216;10.396;2023-03-01T01:46:32;-2.30;99.90
2723;DHT22;1369;53.216;10.396;2023-03-01T01:49:05;-2.40;99.90
2723;DHT22;1369;53.216;10.396;2023-03-01T01:51:38;-2.40;99.90
2723;DHT22;1369;53.216;10.396;2023-03-01T01:54:15;-2.30;99.90
2723;DHT22;1369;53.216;10.396;2023-03-01T01:56:47;-2.50;99.90
2723;DHT22;1369;53.216;10.396;2023-03-01T01:59:15;-2.50;99.90
2723;DHT22;1369;53.216;10.396;2023-03-01T02:01:40;-2.60;99.90
2723;DHT22;1369;53.216;10.396;2023-03-01T02:04:06;-2.60;99.90
2723;DHT22;1369;53.216;10.396;2023-03-01T02:06:42;-2.70;99.90
2723;DHT22;1369;53.216;10.396;2023-03-01T02:09:14;-2.70;99.90
2723;DHT22;1369;53.216;10.396;2023-03-01T02:11:43;-2.70;99.90
2723;DHT22;1369;53.216;10.396;2023-03-01T02:14:09;-2.60;99.90
2723;DHT22;1369;53.216;10.396;2023-03-01T02:16:35;-2.60;99.90
2723;DHT22;1369;53.216;10.396;2023-03-01T02:19:01;-2.60;99.90
2723;DHT22;1369;53.216;10.396;2023-03-01T02:21:42;-2.60;99.90
2723;DHT22;1369;53.216;10.396;2023-03-01T02:26:54;-2.60;99.90
2723;DHT22;1369;53.216;10.396;2023-03-01T02:29:23;-2.80;99.90
2723;DHT22;1369;53.216;10.396;2023-03-01T02:31:51;-2.70;99.90
2723;DHT22;1369;53.216;10.396;2023-03-01T02:34:21;-2.60;99.90
2723;DHT22;1369;53.216;10.396;2023-03-01T02:37:02;-2.70;99.90
2723;DHT22;1369;53.216;10.396;2023-03-01T02:39:40;-2.70;99.90
2723;DHT22;1369;53.216;10.396;2023-03-01T02:42:12;-2.70;99.90
2723;DHT22;1369;53.216;10.396;2023-03-01T02:44:38;-2.70;99.90
2723;DHT22;1369;53.216;10.396;2023-03-01T02:47:07;-2.70;99.90
2723;DHT22;1369;53.216;10.396;2023-03-01T02:49:35;-2.70;99.90
2723;DHT22;1369;53.216;10.396;2023-03-01T02:55:14;-2.80;99.90
2723;DHT22;1369;53.216;10.396;2023-03-01T02:57:43;-2.80;99.90
2723;DHT22;1369;53.216;10.396;2023-03-01T03:00:12;-2.70;99.90
2723;DHT22;1369;53.216;10.396;2023-03-01T03:02:44;-2.70;99.90
2723;DHT22;1369;53.216;10.396;2023-03-01T03:05:14;-2.80;99.90
2723;DHT22;1369;53.216;10.396;2023-03-01T03:07:42;-2.70;99.90
2723;DHT22;1369;53.216;10.396;2023-03-01T03:10:14;-2.80;99.90
2723;DHT22;1369;53.216;10.396;2023-03-01T03:12:40;-2.70;99.90
2723;DHT22;1369;53.216;10.396;2023-03-01T03:15:09;-2.70;99.90
2723;DHT22;1369;53.216;10.396;2023-03-01T03:17:36;-2.70;99.90
2723;DHT22;1369;53.216;10.396;2023-03-01T03:20:04;-2.70;99.90
2723;DHT22;1369;53.216;10.396;2023-03-01T03:22:31;-2.80;99.90
2723;DHT22;1369;53.216;10.396;2023-03-01T03:24:57;-2.70;99.90
2723;DHT22;1369;53.216;10.396;2023-03-01T03:27:22;-2.60;99.90
2723;DHT22;1369;53.216;10.396;2023-03-01T03:29:47;-2.60;99.90
2723;DHT22;1369;53.216;10.396;2023-03-01T03:32:13;-2.70;99.90
2723;DHT22;1369;53.216;10.396;2023-03-01T03:34:38;-2.90;99.90
2723;DHT22;1369;53.216;10.396;2023-03-01T03:37:04;-2.90;99.90
2723;DHT22;1369;53.216;10.396;2023-03-01T03:39:49;-2.90;99.90
2723;DHT22;1369;53.216;10.396;2023-03-01T03:42:20;-3.00;99.90
2723;DHT22;1369;53.216;10.396;2023-03-01T03:44:46;-3.10;99.90
2723;DHT22;1369;53.216;10.396;2023-03-01T03:47:11;-3.10;99.90
2723;DHT22;1369;53.216;10.396;2023-03-01T03:49:37;-3.10;99.90
2723;DHT22;1369;53.216;10.396;2023-03-01T03:52:03;-3.10;99.90
2723;DHT22;1369;53.216;10.396;2023-03-01T03:54:28;-3.10;99.90
2723;DHT22;1369;53.216;10.396;2023-03-01T03:56:53;-3.10;99.90
2723;DHT22;1369;53.216;10.396;2023-03-01T03:59:19;-3.10;99.90
2723;DHT22;1369;53.216;10.396;2023-03-01T04:01:45;-3.10;99.90
2723;DHT22;1369;53.216;10.396;2023-03-01T04:04:10;-3.20;99.90
2723;DHT22;1369;53.216;10.396;2023-03-01T04:06:36;-3.20;99.90
2723;DHT22;1369;53.216;10.396;2023-03-01T04:09:01;-3.20;99.90
2723;DHT22;1369;53.216;10.396;2023-03-01T04:11:27;-3.10;99.90
2723;DHT22;1369;53.216;10.396;2023-03-01T04:13:56;-3.00;99.90
2723;DHT22;1369;53.216;10.396;2023-03-01T04:16:22;-2.90;99.90
2723;DHT22;1369;53.216;10.396;2023-03-01T04:18:48;-2.90;99.90
2723;DHT22;1369;53.216;10.396;2023-03-01T04:21:14;-3.00;99.90
2723;DHT22;1369;53.216;10.396;2023-03-01T04:23:40;-3.10;99.90
2723;DHT22;1369;53.216;10.396;2023-03-01T04:26:06;-3.10;99.90
2723;DHT22;1369;53.216;10.396;2023-03-01T04:28:37;-3.20;99.90
2723;DHT22;1369;53.216;10.396;2023-03-01T04:31:08;-3.30;99.90
2723;DHT22;1369;53.216;10.396;2023-03-01T04:33:45;-3.30;99.90
2723;DHT22;1369;53.216;10.396;2023-03-01T04:36:12;-3.10;99.90
2723;DHT22;1369;53.216;10.396;2023-03-01T04:38:38;-3.10;99.90
2723;DHT22;1369;53.216;10.396;2023-03-01T04:41:06;-3.20;99.90
2723;DHT22;1369;53.216;10.396;2023-03-01T04:43:32;-3.20;99.90
2723;DHT22;1369;53.216;10.396;2023-03-01T04:46:03;-3.30;99.90
2723;DHT22;1369;53.216;10.396;2023-03-01T04:48:30;-3.30;99.90
2723;DHT22;1369;53.216;10.396;2023-03-01T04:50:55;-3.40;99.90
2723;DHT22;1369;53.216;10.396;2023-03-01T04:53:21;-3.40;99.90
2723;DHT22;1369;53.216;10.396;2023-03-01T04:55:46;-3.30;99.90
2723;DHT22;1369;53.216;10.396;2023-03-01T04:58:12;-3.30;99.90
2723;DHT22;1369;53.216;10.396;2023-03-01T05:00:37;-3.30;99.90
2723;DHT22;1369;53.216;10.396;2023-03-01T05:03:03;-3.30;99.90
2723;DHT22;1369;53.216;10.396;2023-03-01T05:05:32;-3.20;99.90
2723;DHT22;1369;53.216;10.396;2023-03-01T05:07:59;-3.20;99.90
2723;DHT22;1369;53.216;10.396;2023-03-01T05:10:27;-3.10;99.90
2723;DHT22;1369;53.216;10.396;2023-03-01T05:12:54;-3.00;99.90
2723;DHT22;1369;53.216;10.396;2023-03-01T05:15:22;-3.00;99.90
2723;DHT22;1369;53.216;10.396;2023-03-01T05:17:51;-3.10;99.90
2723;DHT22;1369;53.216;10.396;2023-03-01T05:20:16;-3.20;99.90
2723;DHT22;1369;53.216;10.396;2023-03-01T05:22:42;-3.30;99.90
2723;DHT22;1369;53.216;10.396;2023-03-01T05:25:08;-3.30;99.90
2723;DHT22;1369;53.216;10.396;2023-03-01T05:27:34;-3.40;99.90
2723;DHT22;1369;53.216;10.396;2023-03-01T05:30:00;-3.40;99.90
2723;DHT22;1369;53.216;10.396;2023-03-01T05:32:41;-3.40;99.90
2723;DHT22;1369;53.216;10.396;2023-03-01T05:35:10;-3.40;99.90
2723;DHT22;1369;53.216;10.396;2023-03-01T05:37:39;-3.30;99.90
2723;DHT22;1369;53.216;10.396;2023-03-01T05:40:08;-3.40;99.90
2723;DHT22;1369;53.216;10.396;2023-03-01T05:42:48;-3.30;99.90
2723;DHT22;1369;53.216;10.396;2023-03-01T05:45:16;-3.30;99.90
2723;DHT22;1369;53.216;10.396;2023-03-01T05:47:43;-3.40;99.90
2723;DHT22;1369;53.216;10.396;2023-03-01T05:50:18;-3.40;99.90
2723;DHT22;1369;53.216;10.396;2023-03-01T05:52:45;-3.50;99.90
2723;DHT22;1369;53.216;10.396;2023-03-01T05:55:11;-3.40;99.90
2723;DHT22;1369;53.216;10.396;2023-03-01T05:57:36;-3.40;99.90
2723;DHT22;1369;53.216;10.396;2023-03-01T06:00:02;-3.40;99.90
2723;DHT22;1369;53.216;10.396;2023-03-01T06:02:28;-3.40;99.90
2723;DHT22;1369;53.216;10.396;2023-03-01T06:04:54;-3.30;99.90
2723;DHT22;1369;53.216;10.396;2023-03-01T06:07:20;-3.30;99.90
2723;DHT22;1369;53.216;10.396;2023-03-01T06:09:45;-3.20;99.90
2723;DHT22;1369;53.216;10.396;2023-03-01T06:12:11;-3.00;99.90
2723;DHT22;1369;53.216;10.396;2023-03-01T06:14:36;-2.80;99.90
2723;DHT22;1369;53.216;10.396;2023-03-01T06:17:02;-2.70;99.90
2723;DHT22;1369;53.216;10.396;2023-03-01T06:19:27;-2.70;99.90
2723;DHT22;1369;53.216;10.396;2023-03-01T06:21:53;-2.60;99.90
2723;DHT22;1369;53.216;10.396;2023-03-01T06:24:18;-2.50;99.90
2723;DHT22;1369;53.216;10.396;2023-03-01T06:26:44;-2.50;99.90
2723;DHT22;1369;53.216;10.396;2023-03-01T06:29:09;-2.40;99.90
2723;DHT22;1369;53.216;10.396;2023-03-01T06:31:35;-2.40;99.90
2723;DHT22;1369;53.216;10.396;2023-03-01T06:34:01;-2.40;99.90
2723;DHT22;1369;53.216;10.396;2023-03-01T06:36:26;-2.20;99.90
2723;DHT22;1369;53.216;10.396;2023-03-01T06:38:52;-2.10;99.90
2723;DHT22;1369;53.216;10.396;2023-03-01T06:41:17;-2.00;99.90
2723;DHT22;1369;53.216;10.396;2023-03-01T06:43:42;-2.10;99.90
2723;DHT22;1369;53.216;10.396;2023-03-01T06:46:08;-1.90;99.90
2723;DHT22;1369;53.216;10.396;2023-03-01T06:48:34;-1.70;99.90
2723;DHT22;1369;53.216;10.396;2023-03-01T06:51:00;-1.60;99.90
2723;DHT22;1369;53.216;10.396;2023-03-01T06:53:29;-1.70;99.90
2723;DHT22;1369;53.216;10.396;2023-03-01T06:55:56;-1.70;99.90
2723;DHT22;1369;53.216;10.396;2023-03-01T06:58:21;-1.60;99.90
2723;DHT22;1369;53.216;10.396;2023-03-01T07:00:47;-1.80;99.90
2723;DHT22;1369;53.216;10.396;2023-03-01T07:03:12;-1.80;99.90
2723;DHT22;1369;53.216;10.396;2023-03-01T07:05:38;-1.70;99.90
2723;DHT22;1369;53.216;10.396;2023-03-01T07:08:04;-1.60;99.90
2723;DHT22;1369;53.216;10.396;2023-03-01T07:10:29;-1.50;99.90
2723;DHT22;1369;53.216;10.396;2023-03-01T07:12:56;-1.30;99.90
2723;DHT22;1369;53.216;10.396;2023-03-01T07:15:22;-1.30;99.90
2723;DHT22;1369;53.216;10.396;2023-03-01T07:17:47;-1.20;99.90
2723;DHT22;1369;53.216;10.396;2023-03-01T07:20:16;-1.10;99.90
2723;DHT22;1369;53.216;10.396;2023-03-01T07:22:42;-0.80;99.90
2723;DHT22;1369;53.216;10.396;2023-03-01T07:25:09;-0.60;99.90
2723;DHT22;1369;53.216;10.396;2023-03-01T07:27:34;-0.50;99.90
2723;DHT22;1369;53.216;10.396;2023-03-01T07:30:00;-0.30;99.90
2723;DHT22;1369;53.216;10.396;2023-03-01T07:32:26;-0.20;99.90
2723;DHT22;1369;53.216;10.396;2023-03-01T07:34:51;0.00;99.90
2723;DHT22;1369;53.216;10.396;2023-03-01T07:37:17;0.20;99.90
2723;DHT22;1369;53.216;10.396;2023-03-01T07:39:42;0.30;99.90
2723;DHT22;1369;53.216;10.396;2023-03-01T07:42:08;0.40;99.90
2723;DHT22;1369;53.216;10.396;2023-03-01T07:44:34;0.40;99.90
2723;DHT22;1369;53.216;10.396;2023-03-01T07:47:03;0.50;99.90
2723;DHT22;1369;53.216;10.396;2023-03-01T07:49:29;0.60;99.90
2723;DHT22;1369;53.216;10.396;2023-03-01T07:51:54;0.80;99.90
2723;DHT22;1369;53.216;10.396;2023-03-01T07:54:20;0.90;99.90
2723;DHT22;1369;53.216;10.396;2023-03-01T07:56:46;1.00;99.90
2723;DHT22;1369;53.216;10.396;2023-03-01T07:59:11;1.10;99.90
2723;DHT22;1369;53.216;10.396;2023-03-01T08:01:37;1.20;99.90
2723;DHT22;1369;53.216;10.396;2023-03-01T08:04:02;1.30;99.90
2723;DHT22;1369;53.216;10.396;2023-03-01T08:06:30;1.60;99.90
2723;DHT22;1369;53.216;10.396;2023-03-01T08:08:56;2.10;99.90
2723;DHT22;1369;53.216;10.396;2023-03-01T08:11:21;2.40;99.90
2723;DHT22;1369;53.216;10.396;2023-03-01T08:13:48;2.60;99.90
2723;DHT22;1369;53.216;10.396;2023-03-01T08:16:15;2.90;99.90
2723;DHT22;1369;53.216;10.396;2023-03-01T08:18:41;3.10;99.90
2723;DHT22;1369;53.216;10.396;2023-03-01T08:21:12;3.30;99.90
2723;DHT22;1369;53.216;10.396;2023-03-01T08:23:38;3.70;99.90
2723;DHT22;1369;53.216;10.396;2023-03-01T08:28:33;4.80;99.90
2723;DHT22;1369;53.216;10.396;2023-03-01T08:30:59;5.10;99.90
2723;DHT22;1369;53.216;10.396;2023-03-01T08:33:24;5.30;99.90
2723;DHT22;1369;53.216;10.396;2023-03-01T08:35:50;5.30;99.90
2723;DHT22;1369;53.216;10.396;2023-03-01T08:38:15;5.30;99.90
2723;DHT22;1369;53.216;10.396;2023-03-01T08:40:41;5.00;99.90
2723;DHT22;1369;53.216;10.396;2023-03-01T08:43:06;4.90;99.90
2723;DHT22;1369;53.216;10.396;2023-03-01T08:45:32;4.60;99.90
2723;DHT22;1369;53.216;10.396;2023-03-01T08:47:57;4.50;99.90
2723;DHT22;1369;53.216;10.396;2023-03-01T08:50:23;4.40;99.90
2723;DHT22;1369;53.216;10.396;2023-03-01T08:52:50;4.60;99.90
2723;DHT22;1369;53.216;10.396;2023-03-01T08:55:15;4.70;99.90
2723;DHT22;1369;53.216;10.396;2023-03-01T08:57:42;4.90;99.90
2723;DHT22;1369;53.216;10.396;2023-03-01T09:00:09;5.10;99.90
2723;DHT22;1369;53.216;10.396;2023-03-01T09:02:34;5.30;99.90
2723;DHT22;1369;53.216;10.396;2023-03-01T09:05:00;5.40;99.90
2723;DHT22;1369;53.216;10.396;2023-03-01T09:07:26;5.70;99.90
2723;DHT22;1369;53.216;10.396;2023-03-01T09:09:53;6.30;99.90
2723;DHT22;1369;53.216;10.396;2023-03-01T09:12:19;7.00;99.90
2723;DHT22;1369;53.216;10.396;2023-03-01T09:14:45;7.60;99.90
2723;DHT22;1369;53.216;10.396;2023-03-01T09:17:10;8.20;99.90
2723;DHT22;1369;53.216;10.396;2023-03-01T09:19:36;8.60;99.90
2723;DHT22;1369;53.216;10.396;2023-03-01T09:22:03;8.90;99.90
2723;DHT22;1369;53.216;10.396;2023-03-01T09:24:29;8.90;99.90
2723;DHT22;1369;53.216;10.396;2023-03-01T09:26:55;9.30;99.90
2723;DHT22;1369;53.216;10.396;2023-03-01T09:29:21;9.80;99.90
2723;DHT22;1369;53.216;10.396;2023-03-01T09:31:47;9.90;99.90
2723;DHT22;1369;53.216;10.396;2023-03-01T09:34:12;10.10;99.90
2723;DHT22;1369;53.216;10.396;2023-03-01T09:36:41;10.40;99.90
2723;DHT22;1369;53.216;10.396;2023-03-01T09:39:06;10.70;99.90
2723;DHT22;1369;53.216;10.396;2023-03-01T09:41:49;10.70;99.90
2723;DHT22;1369;53.216;10.396;2023-03-01T09:44:29;10.50;99.90
2723;DHT22;1369;53.216;10.396;2023-03-01T09:46:57;10.60;99.90
2723;DHT22;1369;53.216;10.396;2023-03-01T09:49:28;10.70;99.90
2723;DHT22;1369;53.216;10.396;2023-03-01T09:54:53;10.30;99.90
2723;DHT22;1369;53.216;10.396;2023-03-01T10:06:05;10.70;99.90
2723;DHT22;1369;53.216;10.396;2023-03-01T10:11:25;10.60;99.90
2723;DHT22;1369;53.216;10.396;2023-03-01T10:14:05;10.70;99.90
2723;DHT22;1369;53.216;10.396;2023-03-01T10:19:55;11.20;99.90
2723;DHT22;1369;53.216;10.396;2023-03-01T10:22:15;11.20;99.90
2723;DHT22;1369;53.216;10.396;2023-03-01T10:24:41;10.90;99.90
2723;DHT22;1369;53.216;10.396;2023-03-01T10:27:37;10.20;99.90
2723;DHT22;1369;53.216;10.396;2023-03-01T10:32:50;9.80;99.90
2723;DHT22;1369;53.216;10.396;2023-03-01T10:35:22;9.90;99.90
2723;DHT22;1369;53.216;10.396;2023-03-01T10:38:05;10.10;99.90
2723;DHT22;1369;53.216;10.396;2023-03-01T10:40:32;10.20;99.90
2723;DHT22;1369;53.216;10.396;2023-03-01T10:43:01;10.10;99.90
2723;DHT22;1369;53.216;10.396;2023-03-01T10:45:38;10.00;99.90
2723;DHT22;1369;53.216;10.396;2023-03-01T10:48:22;10.00;99.90
2723;DHT22;1369;53.216;10.396;2023-03-01T10:51:04;9.50;99.90
2723;DHT22;1369;53.216;10.396;2023-03-01T10:53:36;8.90;99.90
2723;DHT22;1369;53.216;10.396;2023-03-01T10:58:32;9.20;99.90
2723;DHT22;1369;53.216;10.396;2023-03-01T11:03:40;9.40;99.90
2723;DHT22;1369;53.216;10.396;2023-03-01T11:08:43;9.70;99.90
2723;DHT22;1369;53.216;10.396;2023-03-01T11:13:35;9.80;99.90
2723;DHT22;1369;53.216;10.396;2023-03-01T11:16:07;9.90;99.90
2723;DHT22;1369;53.216;10.396;2023-03-01T11:18:35;10.10;99.90
2723;DHT22;1369;53.216;10.396;2023-03-01T11:21:01;10.20;99.90
2723;DHT22;1369;53.216;10.396;2023-03-01T11:23:29;10.10;99.90
2723;DHT22;1369;53.216;10.396;2023-03-01T11:25:58;9.80;99.90
2723;DHT22;1369;53.216;10.396;2023-03-01T11:28:26;9.70;99.90
2723;DHT22;1369;53.216;10.396;2023-03-01T11:31:03;9.60;99.90
2723;DHT22;1369;53.216;10.396;2023-03-01T11:33:47;9.70;99.90
2723;DHT22;1369;53.216;10.396;2023-03-01T11:42:20;9.40;99.90
2723;DHT22;1369;53.216;10.396;2023-03-01T11:44:48;9.40;99.90
2723;DHT22;1369;53.216;10.396;2023-03-01T11:47:27;9.50;99.90
2723;DHT22;1369;53.216;10.396;2023-03-01T11:58:22;9.60;99.90
2723;DHT22;1369;53.216;10.396;2023-03-01T12:06:43;9.30;99.90
2723;DHT22;1369;53.216;10.396;2023-03-01T12:09:28;9.10;99.90
2723;DHT22;1369;53.216;10.396;2023-03-01T12:17:56;9.10;99.90
2723;DHT22;1369;53.216;10.396;2023-03-01T12:20:32;9.20;99.90
2723;DHT22;1369;53.216;10.396;2023-03-01T12:28:45;9.50;99.90
2723;DHT22;1369;53.216;10.396;2023-03-01T12:31:35;9.50;99.90
2723;DHT22;1369;53.216;10.396;2023-03-01T12:37:14;9.70;99.90
2723;DHT22;1369;53.216;10.396;2023-03-01T12:45:40;10.20;99.90
2723;DHT22;1369;53.216;10.396;2023-03-01T12:51:08;10.30;99.90
2723;DHT22;1369;53.216;10.396;2023-03-01T12:53:43;10.50;99.90
2723;DHT22;1369;53.216;10.396;2023-03-01T12:56:12;10.50;99.90
2723;DHT22;1369;53.216;10.396;2023-03-01T13:04:06;10.00;99.90
2723;DHT22;1369;53.216;10.396;2023-03-01T13:20:20;9.40;99.90
2723;DHT22;1369;53.216;10.396;2023-03-01T13:22:46;9.60;99.90
2723;DHT22;1369;53.216;10.396;2023-03-01T13:25:14;9.60;99.90
2723;DHT22;1369;53.216;10.396;2023-03-01T13:27:40;9.80;99.90
2723;DHT22;1369;53.216;10.396;2023-03-01T13:35:57;10.10;99.90
2723;DHT22;1369;53.216;10.396;2023-03-01T13:38:38;10.30;99.90
2723;DHT22;1369;53.216;10.396;2023-03-01T13:41:06;10.30;99.90
2723;DHT22;1369;53.216;10.396;2023-03-01T13:43:37;10.40;99.90
2723;DHT22;1369;53.216;10.396;2023-03-01T13:46:21;10.50;99.90
2723;DHT22;1369;53.216;10.396;2023-03-01T13:48:53;10.60;99.90
2723;DHT22;1369;53.216;10.396;2023-03-01T13:51:23;10.70;99.90
2723;DHT22;1369;53.216;10.396;2023-03-01T13:53:50;10.30;99.90
2723;DHT22;1369;53.216;10.396;2023-03-01T13:56:25;10.00;99.90
2723;DHT22;1369;53.216;10.396;2023-03-01T14:01:26;9.80;99.90
2723;DHT22;1369;53.216;10.396;2023-03-01T14:03:52;10.00;99.90
2723;DHT22;1369;53.216;10.396;2023-03-01T14:06:27;9.70;99.90
2723;DHT22;1369;53.216;10.396;2023-03-01T14:09:03;9.40;99.90
2723;DHT22;1369;53.216;10.396;2023-03-01T14:11:55;9.40;99.90
2723;DHT22;1369;53.216;10.396;2023-03-01T14:17:27;9.80;99.90
2723;DHT22;1369;53.216;10.396;2023-03-01T14:20:03;9.70;99.90
2723;DHT22;1369;53.216;10.396;2023-03-01T14:22:35;9.80;99.90
2723;DHT22;1369;53.216;10.396;2023-03-01T14:25:05;9.80;99.90
2723;DHT22;1369;53.216;10.396;2023-03-01T14:27:36;9.70;99.90
2723;DHT22;1369;53.216;10.396;2023-03-01T14:30:21;9.80;99.90
2723;DHT22;1369;53.216;10.396;2023-03-01T14:32:56;9.70;99.90
2723;DHT22;1369;53.216;10.396;2023-03-01T14:35:25;9.80;99.90
2723;DHT22;1369;53.216;10.396;2023-03-01T14:37:51;9.50;99.90
2723;DHT22;1369;53.216;10.396;2023-03-01T14:40:26;9.40;99.90
2723;DHT22;1369;53.216;10.396;2023-03-01T14:42:53;9.40;99.90
2723;DHT22;1369;53.216;10.396;2023-03-01T14:45:19;9.50;99.90
2723;DHT22;1369;53.216;10.396;2023-03-01T14:47:45;9.40;99.90
2723;DHT22;1369;53.216;10.396;2023-03-01T14:50:29;9.30;99.90
2723;DHT22;1369;53.216;10.396;2023-03-01T14:52:58;9.40;99.90
2723;DHT22;1369;53.216;10.396;2023-03-01T14:55:31;9.50;99.90
2723;DHT22;1369;53.216;10.396;2023-03-01T14:57:58;9.30;99.90
2723;DHT22;1369;53.216;10.396;2023-03-01T15:00:27;9.20;99.90
2723;DHT22;1369;53.216;10.396;2023-03-01T15:06:20;9.10;99.90
2723;DHT22;1369;53.216;10.396;2023-03-01T15:08:54;9.20;99.90
2723;DHT22;1369;53.216;10.396;2023-03-01T15:11:23;9.20;99.90
2723;DHT22;1369;53.216;10.396;2023-03-01T15:13:50;9.20;99.90
2723;DHT22;1369;53.216;10.396;2023-03-01T15:16:18;9.20;99.90
2723;DHT22;1369;53.216;10.396;2023-03-01T15:18:59;9.30;99.90
2723;DHT22;1369;53.216;10.396;2023-03-01T15:21:36;9.20;99.90
2723;DHT22;1369;53.216;10.396;2023-03-01T15:24:07;9.20;99.90
2723;DHT22;1369;53.216;10.396;2023-03-01T15:26:52;9.20;99.90
2723;DHT22;1369;53.216;10.396;2023-03-01T15:29:25;9.00;99.90
2723;DHT22;1369;53.216;10.396;2023-03-01T15:34:36;8.90;99.90
2723;DHT22;1369;53.216;10.396;2023-03-01T15:37:06;9.00;99.90
2723;DHT22;1369;53.216;10.396;2023-03-01T15:39:42;9.00;99.90
2723;DHT22;1369;53.216;10.396;2023-03-01T15:45:28;8.90;99.90
2723;DHT22;1369;53.216;10.396;2023-03-01T15:47:55;8.80;99.90
2723;DHT22;1369;53.216;10.396;2023-03-01T15:50:27;8.80;99.90
2723;DHT22;1369;53.216;10.396;2023-03-01T15:52:54;8.80;99.90
2723;DHT22;1369;53.216;10.396;2023-03-01T15:57:46;8.60;99.90
2723;DHT22;1369;53.216;10.396;2023-03-01T16:00:13;8.60;99.90
2723;DHT22;1369;53.216;10.396;2023-03-01T16:02:40;8.50;99.90
2723;DHT22;1369;53.216;10.396;2023-03-01T16:05:12;8.30;99.90
2723;DHT22;1369;53.216;10.396;2023-03-01T16:07:40;8.20;99.90
2723;DHT22;1369;53.216;10.396;2023-03-01T16:10:06;8.20;99.90
2723;DHT22;1369;53.216;10.396;2023-03-01T16:12:31;8.10;99.90
2723;DHT22;1369;53.216;10.396;2023-03-01T16:14:57;8.00;99.90
2723;DHT22;1369;53.216;10.396;2023-03-01T16:17:23;7.90;99.90
2723;DHT22;1369;53.216;10.396;2023-03-01T16:19:48;7.80;99.90
2723;DHT22;1369;53.216;10.396;2023-03-01T16:22:14;7.60;99.90
2723;DHT22;1369;53.216;10.396;2023-03-01T16:24:39;7.50;99.90
2723;DHT22;1369;53.216;10.396;2023-03-01T16:27:06;7.40;99.90
2723;DHT22;1369;53.216;10.396;2023-03-01T16:29:32;7.30;99.90
2723;DHT22;1369;53.216;10.396;2023-03-01T16:32:00;7.20;99.90
2723;DHT22;1369;53.216;10.396;2023-03-01T16:34:26;7.10;99.90
2723;DHT22;1369;53.216;10.396;2023-03-01T16:36:51;7.00;99.90
2723;DHT22;1369;53.216;10.396;2023-03-01T16:39:17;6.80;99.90
2723;DHT22;1369;53.216;10.396;2023-03-01T16:41:42;6.70;99.90
2723;DHT22;1369;53.216;10.396;2023-03-01T16:44:08;6.60;99.90
2723;DHT22;1369;53.216;10.396;2023-03-01T16:46:34;6.40;99.90
2723;DHT22;1369;53.216;10.396;2023-03-01T16:48:59;6.30;99.90
2723;DHT22;1369;53.216;10.396;2023-03-01T16:51:25;6.10;99.90
2723;DHT22;1369;53.216;10.396;2023-03-01T16:53:51;5.90;99.90
2723;DHT22;1369;53.216;10.396;2023-03-01T16:56:18;5.80;99.90
2723;DHT22;1369;53.216;10.396;2023-03-01T16:58:44;5.70;99.90
2723;DHT22;1369;53.216;10.396;2023-03-01T17:01:15;5.60;99.90
2723;DHT22;1369;53.216;10.396;2023-03-01T17:03:42;5.50;99.90
2723;DHT22;1369;53.216;10.396;2023-03-01T17:06:11;5.50;99.90
2723;DHT22;1369;53.216;10.396;2023-03-01T17:08:37;5.40;99.90
2723;DHT22;1369;53.216;10.396;2023-03-01T17:11:05;5.30;99.90
2723;DHT22;1369;53.216;10.396;2023-03-01T17:13:31;5.20;99.90
2723;DHT22;1369;53.216;10.396;2023-03-01T17:15:57;5.00;99.90
2723;DHT22;1369;53.216;10.396;2023-03-01T17:18:22;5.00;99.90
2723;DHT22;1369;53.216;10.396;2023-03-01T17:20:49;4.90;99.90
2723;DHT22;1369;53.216;10.396;2023-03-01T17:23:15;4.90;99.90
2723;DHT22;1369;53.216;10.396;2023-03-01T17:25:44;4.70;99.90
2723;DHT22;1369;53.216;10.396;2023-03-01T17:28:13;4.60;99.90
2723;DHT22;1369;53.216;10.396;2023-03-01T17:30:43;4.50;99.90
2723;DHT22;1369;53.216;10.396;2023-03-01T17:33:10;4.50;99.90
2723;DHT22;1369;53.216;10.396;2023-03-01T17:35:36;4.40;99.90
2723;DHT22;1369;53.216;10.396;2023-03-01T17:38:03;4.40;99.90
2723;DHT22;1369;53.216;10.396;2023-03-01T17:40:29;4.30;99.90
2723;DHT22;1369;53.216;10.396;2023-03-01T17:42:55;4.30;99.90
2723;DHT22;1369;53.216;10.396;2023-03-01T17:45:21;4.20;99.90
2723;DHT22;1369;53.216;10.396;2023-03-01T17:47:47;4.20;99.90
2723;DHT22;1369;53.216;10.396;2023-03-01T17:50:13;4.10;99.90
2723;DHT22;1369;53.216;10.396;2023-03-01T17:52:38;4.00;99.90
2723;DHT22;1369;53.216;10.396;2023-03-01T17:55:07;4.00;99.90
2723;DHT22;1369;53.216;10.396;2023-03-01T17:57:33;3.90;99.90
2723;DHT22;1369;53.216;10.396;2023-03-01T17:59:59;3.90;99.90
2723;DHT22;1369;53.216;10.396;2023-03-01T18:02:25;3.80;99.90
2723;DHT22;1369;53.216;10.396;2023-03-01T18:04:56;3.70;99.90